sensor_id;sensor_type;location;lat;lon;timestamp;pressure;altitude;pressure_sealevel;temperature;humidity
68948;BME280;55996;49.546;7.400;2022-11-22T00:02:07;96563.75;;;8.98;100.00
68948;BME280;55996;49.546;7.400;2022-11-22T00:04:32;96559.69;;;8.94;100.00
68948;BME280;55996;49.546;7.400;2022-11-22T00:06:57;96583.34;;;8.91;100.00
68948;BME280;55996;49.546;7.400;2022-11-22T00:09:23;96585.94;;;8.91;100.00
68948;BME280;55996;49.546;7.400;2022-11-22T00:11:48;96580.91;;;8.87;100.00
68948;BME280;55996;49.546;7.400;2022-11-22T00:14:13;96581.56;;;9.06;100.00
68948;BME280;55996;49.546;7.400;2022-11-22T00:16:39;96574.19;;;8.98;100.00
68948;BME280;55996;49.546;7.400;2022-11-22T00:19:04;96570.09;;;8.94;100.00
68948;BME280;55996;49.546;7.400;2022-11-22T00:21:29;96567.69;;;9.05;100.00
68948;BME280;55996;49.546;7.400;2022-11-22T00:23:55;96580.00;;;9.03;100.00
68948;BME280;55996;49.546;7.400;2022-11-22T00:26:22;96583.66;;;9.28;100.00
68948;BME280;55996;49.546;7.400;2022-11-22T00:28:47;96595.13;;;9.25;100.00
68948;BME280;55996;49.546;7.400;2022-11-22T00:31:13;96586.41;;;9.12;100.00
68948;BME280;55996;49.546;7.400;2022-11-22T00:33:38;96596.25;;;9.07;100.00
68948;BME280;55996;49.546;7.400;2022-11-22T00:36:04;96593.56;;;9.08;100.00
68948;BME280;55996;49.546;7.400;2022-11-22T00:38:29;96583.03;;;9.10;100.00
68948;BME280;55996;49.546;7.400;2022-11-22T00:40:54;96591.22;;;9.32;100.00
68948;BME280;55996;49.546;7.400;2022-11-22T00:43:20;96581.38;;;9.23;100.00
68948;BME280;55996;49.546;7.400;2022-11-22T00:45:45;96586.00;;;9.32;100.00
68948;BME280;55996;49.546;7.400;2022-11-22T00:48:10;96587.97;;;9.14;100.00
68948;BME280;55996;49.546;7.400;2022-11-22T00:50:36;96594.50;;;9.07;100.00
68948;BME280;55996;49.546;7.400;2022-11-22T00:53:01;96583.22;;;8.92;100.00
68948;BME280;55996;49.546;7.400;2022-11-22T00:55:26;96601.47;;;8.92;100.00
68948;BME280;55996;49.546;7.400;2022-11-22T00:57:52;96610.78;;;8.96;100.00
68948;BME280;55996;49.546;7.400;2022-11-22T01:00:17;96605.09;;;8.90;100.00
68948;BME280;55996;49.546;7.400;2022-11-22T01:02:44;96621.31;;;8.95;100.00
68948;BME280;55996;49.546;7.400;2022-11-22T01:05:09;96625.28;;;9.00;100.00
68948;BME280;55996;49.546;7.400;2022-11-22T01:07:34;96615.22;;;8.94;100.00
68948;BME280;55996;49.546;7.400;2022-11-22T01:10:00;96619.69;;;9.07;100.00
68948;BME280;55996;49.546;7.400;2022-11-22T01:12:25;96624.56;;;9.42;100.00
68948;BME280;55996;49.546;7.400;2022-11-22T01:14:50;96631.34;;;9.44;100.00
68948;BME280;55996;49.546;7.400;2022-11-22T01:17:16;96639.06;;;9.60;100.00
68948;BME280;55996;49.546;7.400;2022-11-22T01:19:42;96652.38;;;9.41;100.00
68948;BME280;55996;49.546;7.400;2022-11-22T01:22:07;96644.59;;;9.27;100.00
68948;BME280;55996;49.546;7.400;2022-11-22T01:24:32;96647.38;;;9.38;100.00
68948;BME280;55996;49.546;7.400;2022-11-22T01:26:58;96652.84;;;9.19;100.00
68948;BME280;55996;49.546;7.400;2022-11-22T01:29:23;96659.34;;;9.69;100.00
68948;BME280;55996;49.546;7.400;2022-11-22T01:31:49;96654.56;;;9.49;100.00
68948;BME280;55996;49.546;7.400;2022-11-22T01:34:14;96652.56;;;9.67;100.00
68948;BME280;55996;49.546;7.400;2022-11-22T01:36:39;96661.25;;;9.53;100.00
68948;BME280;55996;49.546;7.400;2022-11-22T01:39:04;96658.69;;;9.66;100.00
68948;BME280;55996;49.546;7.400;2022-11-22T01:41:30;96667.94;;;9.72;100.00
68948;BME280;55996;49.546;7.400;2022-11-22T01:43:55;96664.59;;;9.41;100.00
68948;BME280;55996;49.546;7.400;2022-11-22T01:46:54;96677.09;;;9.35;100.00
68948;BME280;55996;49.546;7.400;2022-11-22T01:51:48;96672.94;;;9.75;100.00
68948;BME280;55996;49.546;7.400;2022-11-22T01:54:17;96674.47;;;9.50;100.00
68948;BME280;55996;49.546;7.400;2022-11-22T01:56:47;96664.50;;;9.57;100.00
68948;BME280;55996;49.546;7.400;2022-11-22T01:59:18;96655.03;;;9.97;100.00
68948;BME280;55996;49.546;7.400;2022-11-22T02:01:45;96666.22;;;9.85;100.00
68948;BME280;55996;49.546;7.400;2022-11-22T02:04:13;96655.75;;;9.58;100.00
68948;BME280;55996;49.546;7.400;2022-11-22T02:06:49;96670.00;;;9.52;100.00
68948;BME280;55996;49.546;7.400;2022-11-22T02:09:16;96667.75;;;9.46;100.00
68948;BME280;55996;49.546;7.400;2022-11-22T02:11:50;96674.38;;;9.51;100.00
68948;BME280;55996;49.546;7.400;2022-11-22T02:14:20;96676.50;;;9.45;100.00
68948;BME280;55996;49.546;7.400;2022-11-22T02:16:49;96695.41;;;9.19;100.00
68948;BME280;55996;49.546;7.400;2022-11-22T02:19:18;96704.22;;;9.02;100.00
68948;BME280;55996;49.546;7.400;2022-11-22T02:21:54;96692.78;;;8.91;100.00
68948;BME280;55996;49.546;7.400;2022-11-22T02:24:25;96694.88;;;8.84;100.00
68948;BME280;55996;49.546;7.400;2022-11-22T02:26:54;96698.19;;;8.71;100.00
68948;BME280;55996;49.546;7.400;2022-11-22T02:29:19;96698.25;;;8.55;100.00
68948;BME280;55996;49.546;7.400;2022-11-22T02:31:46;96709.19;;;8.46;100.00
68948;BME280;55996;49.546;7.400;2022-11-22T02:34:12;96714.97;;;8.51;100.00
68948;BME280;55996;49.546;7.400;2022-11-22T02:36:49;96712.78;;;8.44;100.00
68948;BME280;55996;49.546;7.400;2022-11-22T02:39:19;96716.13;;;8.46;100.00
68948;BME280;55996;49.546;7.400;2022-11-22T02:41:47;96729.38;;;8.73;100.00
68948;BME280;55996;49.546;7.400;2022-11-22T02:44:13;96728.88;;;8.66;100.00
68948;BME280;55996;49.546;7.400;2022-11-22T02:46:45;96742.31;;;8.75;100.00
68948;BME280;55996;49.546;7.400;2022-11-22T02:49:11;96745.41;;;8.81;100.00
68948;BME280;55996;49.546;7.400;2022-11-22T02:51:36;96744.84;;;8.76;100.00
68948;BME280;55996;49.546;7.400;2022-11-22T02:54:01;96752.13;;;9.16;100.00
68948;BME280;55996;49.546;7.400;2022-11-22T02:56:27;96755.13;;;9.24;100.00
68948;BME280;55996;49.546;7.400;2022-11-22T02:58:52;96749.38;;;9.62;100.00
68948;BME280;55996;49.546;7.400;2022-11-22T03:01:17;96746.56;;;10.09;100.00
68948;BME280;55996;49.546;7.400;2022-11-22T03:03:43;96730.78;;;10.10;100.00
68948;BME280;55996;49.546;7.400;2022-11-22T03:06:08;96734.28;;;9.67;100.00
68948;BME280;55996;49.546;7.400;2022-11-22T03:08:33;96748.44;;;10.34;100.00
68948;BME280;55996;49.546;7.400;2022-11-22T03:10:59;96755.53;;;9.61;100.00
68948;BME280;55996;49.546;7.400;2022-11-22T03:13:25;96766.31;;;9.41;100.00
68948;BME280;55996;49.546;7.400;2022-11-22T03:15:50;96764.13;;;9.18;100.00
68948;BME280;55996;49.546;7.400;2022-11-22T03:18:15;96767.59;;;9.33;100.00
68948;BME280;55996;49.546;7.400;2022-11-22T03:20:41;96768.00;;;9.42;100.00
68948;BME280;55996;49.546;7.400;2022-11-22T03:23:06;96767.91;;;9.13;100.00
68948;BME280;55996;49.546;7.400;2022-11-22T03:25:31;96769.94;;;8.93;100.00
68948;BME280;55996;49.546;7.400;2022-11-22T03:27:56;96769.13;;;8.77;100.00
68948;BME280;55996;49.546;7.400;2022-11-22T03:30:23;96778.78;;;8.91;100.00
68948;BME280;55996;49.546;7.400;2022-11-22T03:32:48;96767.03;;;8.83;100.00
68948;BME280;55996;49.546;7.400;2022-11-22T03:35:14;96771.28;;;9.15;100.00
68948;BME280;55996;49.546;7.400;2022-11-22T03:37:39;96771.34;;;8.99;100.00
68948;BME280;55996;49.546;7.400;2022-11-22T03:40:05;96780.78;;;8.85;100.00
68948;BME280;55996;49.546;7.400;2022-11-22T03:42:30;96777.44;;;8.83;100.00
68948;BME280;55996;49.546;7.400;2022-11-22T03:44:56;96766.16;;;8.83;100.00
68948;BME280;55996;49.546;7.400;2022-11-22T03:47:21;96772.75;;;8.74;100.00
68948;BME280;55996;49.546;7.400;2022-11-22T03:49:46;96771.81;;;8.75;100.00
68948;BME280;55996;49.546;7.400;2022-11-22T03:52:12;96761.66;;;8.70;100.00
68948;BME280;55996;49.546;7.400;2022-11-22T03:54:37;96758.13;;;8.55;100.00
68948;BME280;55996;49.546;7.400;2022-11-22T03:57:03;96744.09;;;8.42;100.00
68948;BME280;55996;49.546;7.400;2022-11-22T03:59:28;96744.38;;;8.53;100.00
68948;BME280;55996;49.546;7.400;2022-11-22T04:01:54;96751.84;;;8.44;100.00
68948;BME280;55996;49.546;7.400;2022-11-22T04:04:19;96742.03;;;8.49;100.00
68948;BME280;55996;49.546;7.400;2022-11-22T04:06:44;96749.09;;;8.47;100.00
68948;BME280;55996;49.546;7.400;2022-11-22T04:09:10;96754.13;;;8.50;100.00
68948;BME280;55996;49.546;7.400;2022-11-22T04:11:35;96756.97;;;8.45;100.00
68948;BME280;55996;49.546;7.400;2022-11-22T04:14:00;96754.72;;;8.55;100.00
68948;BME280;55996;49.546;7.400;2022-11-22T04:16:44;96760.25;;;8.49;100.00
68948;BME280;55996;49.546;7.400;2022-11-22T04:19:10;96761.19;;;8.48;100.00
68948;BME280;55996;49.546;7.400;2022-11-22T04:21:35;96756.47;;;8.54;100.00
68948;BME280;55996;49.546;7.400;2022-11-22T04:26:44;96756.72;;;8.66;100.00
68948;BME280;55996;49.546;7.400;2022-11-22T04:29:10;96752.47;;;9.69;100.00
68948;BME280;55996;49.546;7.400;2022-11-22T04:31:36;96766.94;;;9.15;100.00
68948;BME280;55996;49.546;7.400;2022-11-22T04:34:20;96772.41;;;9.11;100.00
68948;BME280;55996;49.546;7.400;2022-11-22T04:36:46;96779.16;;;8.99;100.00
68948;BME280;55996;49.546;7.400;2022-11-22T04:39:11;96785.94;;;8.87;100.00
68948;BME280;55996;49.546;7.400;2022-11-22T04:41:37;96785.66;;;9.22;100.00
68948;BME280;55996;49.546;7.400;2022-11-22T04:44:02;96787.56;;;9.63;100.00
68948;BME280;55996;49.546;7.400;2022-11-22T04:46:46;96789.72;;;9.71;100.00
68948;BME280;55996;49.546;7.400;2022-11-22T04:49:11;96780.94;;;9.43;100.00
68948;BME280;55996;49.546;7.400;2022-11-22T04:51:36;96772.41;;;9.25;100.00
68948;BME280;55996;49.546;7.400;2022-11-22T04:54:21;96775.00;;;9.11;100.00
68948;BME280;55996;49.546;7.400;2022-11-22T04:56:46;96784.06;;;9.34;100.00
68948;BME280;55996;49.546;7.400;2022-11-22T04:59:12;96780.63;;;8.88;100.00
68948;BME280;55996;49.546;7.400;2022-11-22T05:01:37;96792.09;;;9.00;100.00
68948;BME280;55996;49.546;7.400;2022-11-22T05:04:02;96795.28;;;9.06;100.00
68948;BME280;55996;49.546;7.400;2022-11-22T05:06:28;96801.47;;;8.88;100.00
68948;BME280;55996;49.546;7.400;2022-11-22T05:08:53;96802.28;;;8.89;100.00
68948;BME280;55996;49.546;7.400;2022-11-22T05:11:19;96806.81;;;9.01;100.00
68948;BME280;55996;49.546;7.400;2022-11-22T05:13:44;96785.59;;;8.77;100.00
68948;BME280;55996;49.546;7.400;2022-11-22T05:16:11;96796.09;;;8.76;100.00
68948;BME280;55996;49.546;7.400;2022-11-22T05:18:37;96796.44;;;8.69;100.00
68948;BME280;55996;49.546;7.400;2022-11-22T05:21:08;96790.06;;;8.75;100.00
68948;BME280;55996;49.546;7.400;2022-11-22T05:23:34;96797.19;;;8.71;100.00
68948;BME280;55996;49.546;7.400;2022-11-22T05:26:18;96795.09;;;8.78;100.00
68948;BME280;55996;49.546;7.400;2022-11-22T05:28:44;96790.56;;;9.72;100.00
68948;BME280;55996;49.546;7.400;2022-11-22T05:31:12;96797.06;;;9.50;100.00
68948;BME280;55996;49.546;7.400;2022-11-22T05:33:39;96805.84;;;9.18;100.00
68948;BME280;55996;49.546;7.400;2022-11-22T05:36:06;96812.28;;;9.87;100.00
68948;BME280;55996;49.546;7.400;2022-11-22T05:38:32;96808.34;;;10.08;100.00
68948;BME280;55996;49.546;7.400;2022-11-22T05:41:00;96810.66;;;10.84;100.00
68948;BME280;55996;49.546;7.400;2022-11-22T05:43:26;96824.88;;;10.09;100.00
68948;BME280;55996;49.546;7.400;2022-11-22T05:45:52;96824.28;;;9.75;100.00
68948;BME280;55996;49.546;7.400;2022-11-22T05:48:17;96819.03;;;9.46;100.00
68948;BME280;55996;49.546;7.400;2022-11-22T05:50:42;96834.22;;;9.39;100.00
68948;BME280;55996;49.546;7.400;2022-11-22T05:53:08;96841.59;;;9.16;100.00
68948;BME280;55996;49.546;7.400;2022-11-22T05:55:33;96840.25;;;9.40;100.00
68948;BME280;55996;49.546;7.400;2022-11-22T05:57:59;96823.44;;;9.15;100.00
68948;BME280;55996;49.546;7.400;2022-11-22T06:00:28;96837.00;;;9.06;100.00
68948;BME280;55996;49.546;7.400;2022-11-22T06:03:01;96829.56;;;9.14;100.00
68948;BME280;55996;49.546;7.400;2022-11-22T06:05:27;96840.47;;;9.51;100.00
68948;BME280;55996;49.546;7.400;2022-11-22T06:07:56;96846.72;;;9.18;100.00
68948;BME280;55996;49.546;7.400;2022-11-22T06:10:22;96851.66;;;9.23;100.00
68948;BME280;55996;49.546;7.400;2022-11-22T06:12:47;96837.84;;;9.36;100.00
68948;BME280;55996;49.546;7.400;2022-11-22T06:15:12;96839.69;;;9.34;100.00
68948;BME280;55996;49.546;7.400;2022-11-22T06:17:38;96846.31;;;9.40;100.00
68948;BME280;55996;49.546;7.400;2022-11-22T06:20:03;96854.06;;;10.01;100.00
68948;BME280;55996;49.546;7.400;2022-11-22T06:22:29;96853.66;;;9.64;100.00
68948;BME280;55996;49.546;7.400;2022-11-22T06:24:54;96852.22;;;9.28;100.00
68948;BME280;55996;49.546;7.400;2022-11-22T06:27:20;96861.38;;;9.65;100.00
68948;BME280;55996;49.546;7.400;2022-11-22T06:29:45;96849.38;;;11.72;100.00
68948;BME280;55996;49.546;7.400;2022-11-22T06:32:10;96856.47;;;11.57;100.00
68948;BME280;55996;49.546;7.400;2022-11-22T06:34:37;96844.25;;;11.17;100.00
68948;BME280;55996;49.546;7.400;2022-11-22T06:37:02;96857.69;;;10.56;100.00
68948;BME280;55996;49.546;7.400;2022-11-22T06:39:28;96872.38;;;10.44;100.00
68948;BME280;55996;49.546;7.400;2022-11-22T06:41:53;96865.25;;;10.32;100.00
68948;BME280;55996;49.546;7.400;2022-11-22T06:44:18;96864.38;;;9.88;100.00
68948;BME280;55996;49.546;7.400;2022-11-22T06:46:44;96859.84;;;10.49;100.00
68948;BME280;55996;49.546;7.400;2022-11-22T06:49:09;96863.94;;;9.81;100.00
68948;BME280;55996;49.546;7.400;2022-11-22T06:51:34;96864.81;;;9.66;100.00
68948;BME280;55996;49.546;7.400;2022-11-22T06:54:00;96868.13;;;10.13;100.00
68948;BME280;55996;49.546;7.400;2022-11-22T06:56:29;96869.56;;;9.59;100.00
68948;BME280;55996;49.546;7.400;2022-11-22T06:58:55;96879.19;;;9.12;100.00
68948;BME280;55996;49.546;7.400;2022-11-22T07:03:48;96881.41;;;8.72;100.00
68948;BME280;55996;49.546;7.400;2022-11-22T07:06:15;96884.25;;;9.15;100.00
68948;BME280;55996;49.546;7.400;2022-11-22T07:08:41;96885.19;;;8.82;100.00
68948;BME280;55996;49.546;7.400;2022-11-22T07:11:16;96887.22;;;8.77;100.00
68948;BME280;55996;49.546;7.400;2022-11-22T07:13:41;96883.94;;;9.06;100.00
68948;BME280;55996;49.546;7.400;2022-11-22T07:16:08;96896.94;;;9.22;100.00
68948;BME280;55996;49.546;7.400;2022-11-22T07:18:34;96886.63;;;9.34;100.00
68948;BME280;55996;49.546;7.400;2022-11-22T07:21:02;96883.97;;;11.37;100.00
68948;BME280;55996;49.546;7.400;2022-11-22T07:23:28;96884.56;;;10.58;100.00
68948;BME280;55996;49.546;7.400;2022-11-22T07:25:54;96878.94;;;9.92;100.00
68948;BME280;55996;49.546;7.400;2022-11-22T07:28:19;96896.53;;;9.44;100.00
68948;BME280;55996;49.546;7.400;2022-11-22T07:30:45;96898.41;;;9.42;100.00
68948;BME280;55996;49.546;7.400;2022-11-22T07:33:10;96897.22;;;9.31;100.00
68948;BME280;55996;49.546;7.400;2022-11-22T07:35:35;96888.22;;;9.37;100.00
68948;BME280;55996;49.546;7.400;2022-11-22T07:38:02;96882.97;;;9.07;100.00
68948;BME280;55996;49.546;7.400;2022-11-22T07:40:27;96893.25;;;8.94;100.00
68948;BME280;55996;49.546;7.400;2022-11-22T07:42:52;96901.25;;;8.91;100.00
68948;BME280;55996;49.546;7.400;2022-11-22T07:45:18;96910.66;;;8.93;100.00
68948;BME280;55996;49.546;7.400;2022-11-22T07:47:43;96914.53;;;9.48;100.00
68948;BME280;55996;49.546;7.400;2022-11-22T07:50:09;96921.31;;;9.20;100.00
68948;BME280;55996;49.546;7.400;2022-11-22T07:52:34;96919.44;;;9.39;100.00
68948;BME280;55996;49.546;7.400;2022-11-22T07:55:00;96907.50;;;9.34;100.00
68948;BME280;55996;49.546;7.400;2022-11-22T07:57:25;96918.38;;;9.11;100.00
68948;BME280;55996;49.546;7.400;2022-11-22T07:59:51;96913.00;;;9.14;100.00
68948;BME280;55996;49.546;7.400;2022-11-22T08:02:16;96922.69;;;9.12;100.00
68948;BME280;55996;49.546;7.400;2022-11-22T08:04:41;96919.47;;;9.07;100.00
68948;BME280;55996;49.546;7.400;2022-11-22T08:07:07;96929.97;;;8.89;100.00
68948;BME280;55996;49.546;7.400;2022-11-22T08:09:33;96912.06;;;8.83;100.00
68948;BME280;55996;49.546;7.400;2022-11-22T08:11:58;96911.59;;;8.76;100.00
68948;BME280;55996;49.546;7.400;2022-11-22T08:14:24;96921.25;;;8.90;100.00
68948;BME280;55996;49.546;7.400;2022-11-22T08:16:49;96919.72;;;9.18;100.00
68948;BME280;55996;49.546;7.400;2022-11-22T08:19:14;96941.66;;;9.30;100.00
68948;BME280;55996;49.546;7.400;2022-11-22T08:21:42;96947.78;;;9.75;100.00
68948;BME280;55996;49.546;7.400;2022-11-22T08:24:08;96943.19;;;9.64;100.00
68948;BME280;55996;49.546;7.400;2022-11-22T08:26:33;96934.41;;;9.81;100.00
68948;BME280;55996;49.546;7.400;2022-11-22T08:28:59;96941.53;;;9.47;100.00
68948;BME280;55996;49.546;7.400;2022-11-22T08:31:28;96924.03;;;10.68;100.00
68948;BME280;55996;49.546;7.400;2022-11-22T08:33:53;96932.53;;;10.57;100.00
68948;BME280;55996;49.546;7.400;2022-11-22T08:36:18;96941.72;;;10.34;100.00
68948;BME280;55996;49.546;7.400;2022-11-22T08:38:44;96949.91;;;9.99;100.00
68948;BME280;55996;49.546;7.400;2022-11-22T08:41:09;96952.44;;;10.15;100.00
68948;BME280;55996;49.546;7.400;2022-11-22T08:43:35;96952.47;;;9.84;100.00
68948;BME280;55996;49.546;7.400;2022-11-22T08:46:01;96946.59;;;10.26;100.00
68948;BME280;55996;49.546;7.400;2022-11-22T08:48:28;96949.38;;;9.78;100.00
68948;BME280;55996;49.546;7.400;2022-11-22T08:50:59;96940.09;;;9.58;100.00
68948;BME280;55996;49.546;7.400;2022-11-22T08:53:25;96944.41;;;10.04;100.00
68948;BME280;55996;49.546;7.400;2022-11-22T08:55:51;96954.38;;;9.66;100.00
68948;BME280;55996;49.546;7.400;2022-11-22T08:58:17;96950.78;;;10.28;100.00
68948;BME280;55996;49.546;7.400;2022-11-22T09:00:43;96938.28;;;10.19;100.00
68948;BME280;55996;49.546;7.400;2022-11-22T09:03:09;96934.53;;;10.23;100.00
68948;BME280;55996;49.546;7.400;2022-11-22T09:05:34;96940.00;;;10.49;100.00
68948;BME280;55996;49.546;7.400;2022-11-22T09:08:00;96939.63;;;10.41;100.00
68948;BME280;55996;49.546;7.400;2022-11-22T09:10:25;96932.63;;;10.41;100.00
68948;BME280;55996;49.546;7.400;2022-11-22T09:12:51;96933.53;;;10.69;100.00
68948;BME280;55996;49.546;7.400;2022-11-22T09:15:16;96923.94;;;10.70;100.00
68948;BME280;55996;49.546;7.400;2022-11-22T09:17:43;96934.16;;;11.02;100.00
68948;BME280;55996;49.546;7.400;2022-11-22T09:20:09;96934.00;;;10.76;100.00
68948;BME280;55996;49.546;7.400;2022-11-22T09:22:35;96932.16;;;10.49;100.00
68948;BME280;55996;49.546;7.400;2022-11-22T09:25:01;96932.06;;;10.36;100.00
68948;BME280;55996;49.546;7.400;2022-11-22T09:27:26;96931.84;;;10.25;100.00
68948;BME280;55996;49.546;7.400;2022-11-22T09:29:51;96928.00;;;10.30;100.00
68948;BME280;55996;49.546;7.400;2022-11-22T09:32:17;96923.53;;;10.18;100.00
68948;BME280;55996;49.546;7.400;2022-11-22T09:34:42;96926.75;;;10.52;100.00
68948;BME280;55996;49.546;7.400;2022-11-22T09:37:08;96922.44;;;10.37;100.00
68948;BME280;55996;49.546;7.400;2022-11-22T09:39:33;96925.34;;;9.87;100.00
68948;BME280;55996;49.546;7.400;2022-11-22T09:42:35;96920.00;;;10.19;100.00
68948;BME280;55996;49.546;7.400;2022-11-22T09:52:55;96918.44;;;9.72;100.00
68948;BME280;55996;49.546;7.400;2022-11-22T10:01:09;96921.13;;;9.40;100.00
68948;BME280;55996;49.546;7.400;2022-11-22T10:03:45;96919.44;;;9.39;100.00
68948;BME280;55996;49.546;7.400;2022-11-22T10:06:20;96922.19;;;9.51;100.00
68948;BME280;55996;49.546;7.400;2022-11-22T10:09:02;96927.13;;;9.56;100.00
68948;BME280;55996;49.546;7.400;2022-11-22T10:14:04;96909.47;;;9.61;100.00
68948;BME280;55996;49.546;7.400;2022-11-22T10:16:43;96905.13;;;9.91;100.00
68948;BME280;55996;49.546;7.400;2022-11-22T10:19:44;96904.81;;;9.81;100.00
68948;BME280;55996;49.546;7.400;2022-11-22T10:22:14;96893.38;;;9.83;100.00
68948;BME280;55996;49.546;7.400;2022-11-22T10:24:41;96894.97;;;9.86;100.00
68948;BME280;55996;49.546;7.400;2022-11-22T10:27:14;96897.34;;;9.75;100.00
68948;BME280;55996;49.546;7.400;2022-11-22T10:29:56;96896.06;;;9.67;100.00
68948;BME280;55996;49.546;7.400;2022-11-22T10:32:37;96890.03;;;9.96;100.00
68948;BME280;55996;49.546;7.400;2022-11-22T10:43:09;96890.41;;;10.04;100.00
68948;BME280;55996;49.546;7.400;2022-11-22T10:45:47;96884.75;;;9.97;100.00
68948;BME280;55996;49.546;7.400;2022-11-22T10:53:58;96881.16;;;9.98;100.00
68948;BME280;55996;49.546;7.400;2022-11-22T11:04:28;96870.00;;;9.96;100.00
68948;BME280;55996;49.546;7.400;2022-11-22T11:06:56;96885.31;;;10.02;100.00
68948;BME280;55996;49.546;7.400;2022-11-22T11:09:28;96882.22;;;10.25;100.00
68948;BME280;55996;49.546;7.400;2022-11-22T11:11:55;96878.94;;;10.07;100.00
68948;BME280;55996;49.546;7.400;2022-11-22T11:14:37;96870.19;;;10.65;100.00
68948;BME280;55996;49.546;7.400;2022-11-22T11:17:05;96858.84;;;10.79;100.00
68948;BME280;55996;49.546;7.400;2022-11-22T11:19:37;96867.50;;;10.94;100.00
68948;BME280;55996;49.546;7.400;2022-11-22T11:24:31;96849.13;;;10.81;100.00
68948;BME280;55996;49.546;7.400;2022-11-22T11:26:58;96857.47;;;11.01;100.00
68948;BME280;55996;49.546;7.400;2022-11-22T11:29:38;96855.75;;;10.87;100.00
68948;BME280;55996;49.546;7.400;2022-11-22T11:34:34;96849.09;;;10.54;100.00
68948;BME280;55996;49.546;7.400;2022-11-22T11:37:00;96855.81;;;10.58;100.00
68948;BME280;55996;49.546;7.400;2022-11-22T11:39:29;96851.53;;;10.43;100.00
68948;BME280;55996;49.546;7.400;2022-11-22T11:41:55;96867.97;;;10.45;100.00
68948;BME280;55996;49.546;7.400;2022-11-22T11:46:53;96858.06;;;10.21;100.00
68948;BME280;55996;49.546;7.400;2022-11-22T11:49:30;96867.59;;;10.08;100.00
68948;BME280;55996;49.546;7.400;2022-11-22T11:54:40;96856.94;;;10.54;100.00
68948;BME280;55996;49.546;7.400;2022-11-22T11:57:13;96858.06;;;10.64;100.00
68948;BME280;55996;49.546;7.400;2022-11-22T12:04:46;96849.44;;;10.77;100.00
68948;BME280;55996;49.546;7.400;2022-11-22T12:07:26;96851.28;;;10.89;100.00
68948;BME280;55996;49.546;7.400;2022-11-22T12:09:54;96854.28;;;10.83;100.00
68948;BME280;55996;49.546;7.400;2022-11-22T12:23:46;96846.72;;;11.06;100.00
68948;BME280;55996;49.546;7.400;2022-11-22T12:26:14;96850.34;;;11.18;100.00
68948;BME280;55996;49.546;7.400;2022-11-22T12:28:40;96842.81;;;11.26;100.00
68948;BME280;55996;49.546;7.400;2022-11-22T12:34:10;96857.31;;;10.90;100.00
68948;BME280;55996;49.546;7.400;2022-11-22T12:37:04;96851.13;;;11.05;100.00
68948;BME280;55996;49.546;7.400;2022-11-22T12:39:34;96855.84;;;11.13;100.00
68948;BME280;55996;49.546;7.400;2022-11-22T12:42:15;96862.22;;;11.09;100.00
68948;BME280;55996;49.546;7.400;2022-11-22T12:44:44;96850.34;;;11.18;100.00
68948;BME280;55996;49.546;7.400;2022-11-22T12:47:16;96868.72;;;11.16;100.00
68948;BME280;55996;49.546;7.400;2022-11-22T12:49:46;96863.59;;;10.87;100.00
68948;BME280;55996;49.546;7.400;2022-11-22T12:54:49;96866.59;;;11.08;100.00
68948;BME280;55996;49.546;7.400;2022-11-22T12:57:23;96861.84;;;11.28;100.00
68948;BME280;55996;49.546;7.400;2022-11-22T13:00:03;96863.25;;;11.06;100.00
68948;BME280;55996;49.546;7.400;2022-11-22T13:02:59;96869.22;;;10.81;100.00
68948;BME280;55996;49.546;7.400;2022-11-22T13:05:45;96872.22;;;11.29;100.00
68948;BME280;55996;49.546;7.400;2022-11-22T13:10:42;96862.22;;;11.62;100.00
68948;BME280;55996;49.546;7.400;2022-11-22T13:15:53;96865.25;;;11.43;100.00
68948;BME280;55996;49.546;7.400;2022-11-22T13:18:27;96859.13;;;11.29;100.00
68948;BME280;55996;49.546;7.400;2022-11-22T13:29:20;96862.75;;;11.54;100.00
68948;BME280;55996;49.546;7.400;2022-11-22T13:32:20;96861.47;;;11.34;100.00
68948;BME280;55996;49.546;7.400;2022-11-22T13:37:35;96869.75;;;11.13;100.00
68948;BME280;55996;49.546;7.400;2022-11-22T13:40:35;96866.19;;;11.42;100.00
68948;BME280;55996;49.546;7.400;2022-11-22T13:48:11;96857.63;;;11.53;100.00
68948;BME280;55996;49.546;7.400;2022-11-22T13:53:29;96850.75;;;11.90;100.00
68948;BME280;55996;49.546;7.400;2022-11-22T13:55:57;96860.03;;;11.56;100.00
68948;BME280;55996;49.546;7.400;2022-11-22T14:09:44;96854.75;;;11.30;100.00
68948;BME280;55996;49.546;7.400;2022-11-22T14:32:20;96860.69;;;11.19;100.00
68948;BME280;55996;49.546;7.400;2022-11-22T14:45:12;96862.50;;;11.32;100.00
68948;BME280;55996;49.546;7.400;2022-11-22T14:52:57;96869.13;;;11.10;100.00
68948;BME280;55996;49.546;7.400;2022-11-22T14:55:28;96869.13;;;11.10;100.00
68948;BME280;55996;49.546;7.400;2022-11-22T14:58:21;96873.50;;;10.82;100.00
68948;BME280;55996;49.546;7.400;2022-11-22T15:11:47;96879.66;;;10.81;100.00
68948;BME280;55996;49.546;7.400;2022-11-22T15:17:14;96877.00;;;10.54;100.00
68948;BME280;55996;49.546;7.400;2022-11-22T15:19:42;96880.38;;;10.56;100.00
68948;BME280;55996;49.546;7.400;2022-11-22T15:22:13;96883.97;;;10.68;100.00
68948;BME280;55996;49.546;7.400;2022-11-22T15:24:49;96885.28;;;10.60;100.00
68948;BME280;55996;49.546;7.400;2022-11-22T15:30:08;96884.31;;;11.45;100.00
68948;BME280;55996;49.546;7.400;2022-11-22T15:32:38;96890.88;;;10.69;100.00
68948;BME280;55996;49.546;7.400;2022-11-22T15:35:04;96891.25;;;10.77;100.00
68948;BME280;55996;49.546;7.400;2022-11-22T15:37:44;96898.22;;;10.91;100.00
68948;BME280;55996;49.546;7.400;2022-11-22T15:40:14;96904.50;;;10.74;100.00
68948;BME280;55996;49.546;7.400;2022-11-22T15:45:15;96917.34;;;10.49;100.00
68948;BME280;55996;49.546;7.400;2022-11-22T15:47:43;96916.63;;;10.31;100.00
68948;BME280;55996;49.546;7.400;2022-11-22T15:50:15;96921.28;;;10.12;100.00
68948;BME280;55996;49.546;7.400;2022-11-22T15:52:49;96922.69;;;10.17;100.00